createdAt,value
2018-06-04T00:01:25.305Z,94.15
2018-06-04T00:03:53.743Z,96.13
2018-06-04T00:06:22.187Z,97.49
2018-06-04T00:08:50.623Z,99.19
2018-06-04T00:11:19.546Z,100.00
2018-06-04T00:13:48.009Z,98.26
2018-06-04T00:16:16.477Z,100.00
2018-06-04T00:20:14.036Z,100.00
2018-06-04T00:22:42.499Z,100.00
2018-06-04T00:25:10.924Z,100.00
2018-06-04T00:27:39.624Z,100.00
2018-06-04T00:30:08.072Z,100.00
2018-06-04T00:32:36.549Z,100.00
2018-06-04T00:35:04.978Z,100.00
2018-06-04T00:37:33.418Z,100.00
2018-06-04T00:40:01.829Z,100.00
2018-06-04T00:42:30.239Z,100.00
2018-06-04T00:44:58.660Z,100.00
2018-06-04T00:47:27.073Z,100.00
2018-06-04T00:49:55.476Z,100.00
2018-06-04T00:52:24.348Z,100.00
2018-06-04T00:54:52.874Z,100.00
2018-06-04T00:57:21.347Z,100.00
2018-06-04T00:59:49.776Z,100.00
2018-06-04T01:02:18.262Z,100.00
2018-06-04T01:04:46.715Z,100.00
2018-06-04T01:07:15.182Z,100.00
2018-06-04T01:09:43.606Z,100.00
2018-06-04T01:12:12.069Z,100.00
2018-06-04T01:14:40.492Z,100.00
2018-06-04T01:17:08.992Z,100.00
2018-06-04T01:19:37.419Z,100.00
2018-06-04T01:22:05.877Z,100.00
2018-06-04T01:24:34.296Z,100.00
2018-06-04T01:27:02.713Z,100.00
2018-06-04T01:29:31.131Z,100.00
2018-06-04T01:31:59.548Z,100.00
2018-06-04T01:34:28.055Z,100.00
2018-06-04T01:36:56.463Z,100.00
2018-06-04T01:39:25.136Z,100.00
2018-06-04T01:41:53.564Z,100.00
2018-06-04T01:44:22.013Z,100.00
2018-06-04T01:46:50.790Z,100.00
2018-06-04T01:49:19.219Z,100.00
2018-06-04T01:51:47.652Z,100.00
2018-06-04T01:54:16.117Z,100.00
2018-06-04T01:56:44.761Z,100.00
2018-06-04T01:59:13.429Z,100.00
2018-06-04T02:01:41.865Z,100.00
2018-06-04T02:04:10.296Z,100.00
2018-06-04T02:06:38.751Z,100.00
2018-06-04T02:09:07.445Z,100.00
2018-06-04T02:11:35.937Z,100.00
2018-06-04T02:14:04.394Z,100.00
2018-06-04T02:16:32.853Z,100.00
2018-06-04T02:19:01.324Z,100.00
2018-06-04T02:21:29.942Z,100.00
2018-06-04T02:23:58.505Z,100.00
2018-06-04T02:26:26.943Z,100.00
2018-06-04T02:28:55.366Z,100.00
2018-06-04T02:31:23.792Z,100.00
2018-06-04T02:33:52.203Z,100.00
2018-06-04T02:36:20.643Z,100.00
2018-06-04T02:38:49.074Z,100.00
2018-06-04T02:41:17.743Z,100.00
2018-06-04T02:43:46.200Z,100.00
2018-06-04T02:46:14.654Z,100.00
2018-06-04T02:48:43.132Z,100.00
2018-06-04T02:51:11.558Z,100.00
2018-06-04T02:53:40.058Z,100.00
2018-06-04T02:56:08.478Z,100.00
2018-06-04T02:58:36.894Z,100.00
2018-06-04T03:01:05.329Z,100.00
2018-06-04T03:03:33.757Z,100.00
2018-06-04T03:06:02.175Z,100.00
2018-06-04T03:08:30.648Z,100.00
2018-06-04T03:10:59.097Z,100.00
2018-06-04T03:13:27.528Z,100.00
2018-06-04T03:15:55.959Z,100.00
2018-06-04T03:18:24.394Z,100.00
2018-06-04T03:20:52.852Z,100.00
2018-06-04T03:23:21.272Z,100.00
2018-06-04T03:25:49.755Z,100.00
2018-06-04T03:28:18.172Z,100.00
2018-06-04T03:30:46.605Z,100.00
2018-06-04T03:33:15.059Z,100.00
2018-06-04T03:35:43.508Z,100.00
2018-06-04T03:38:11.992Z,100.00
2018-06-04T03:40:40.428Z,100.00
2018-06-04T03:43:08.836Z,100.00
2018-06-04T03:45:37.288Z,100.00
2018-06-04T03:48:05.738Z,100.00
2018-06-04T03:50:34.195Z,100.00
2018-06-04T03:53:02.836Z,100.00
2018-06-04T03:55:31.271Z,100.00
2018-06-04T03:57:59.692Z,100.00
2018-06-04T04:00:28.142Z,100.00
2018-06-04T04:02:56.609Z,100.00
2018-06-04T04:05:25.065Z,100.00
2018-06-04T04:07:53.518Z,100.00
2018-06-04T04:10:22.288Z,100.00
2018-06-04T04:12:50.728Z,100.00
2018-06-04T04:15:19.147Z,100.00
2018-06-04T04:17:47.528Z,100.00
2018-06-04T04:20:15.963Z,100.00
2018-06-04T04:22:44.433Z,100.00
2018-06-04T04:25:12.836Z,100.00
2018-06-04T04:27:41.343Z,100.00
2018-06-04T04:30:09.784Z,100.00
2018-06-04T04:32:38.236Z,100.00
2018-06-04T04:35:06.724Z,100.00
2018-06-04T04:37:35.128Z,100.00
2018-06-04T04:40:03.951Z,100.00
2018-06-04T04:42:32.356Z,100.00
2018-06-04T04:45:00.775Z,100.00
2018-06-04T04:47:29.231Z,100.00
2018-06-04T04:49:57.655Z,100.00
2018-06-04T04:52:26.344Z,100.00
2018-06-04T04:54:54.749Z,100.00
2018-06-04T04:57:23.216Z,100.00
2018-06-04T04:59:51.775Z,100.00
2018-06-04T05:02:20.214Z,100.00
2018-06-04T05:04:48.836Z,100.00
2018-06-04T05:07:17.472Z,100.00
2018-06-04T05:09:46.190Z,100.00
2018-06-04T05:12:14.720Z,100.00
2018-06-04T05:14:43.153Z,100.00
2018-06-04T05:17:11.654Z,100.00
2018-06-04T05:19:40.068Z,100.00
2018-06-04T05:22:08.472Z,100.00
2018-06-04T05:24:36.935Z,100.00
2018-06-04T05:27:05.799Z,99.73
2018-06-04T05:29:34.263Z,98.70
2018-06-04T05:32:02.855Z,97.66
2018-06-04T05:34:31.300Z,97.78
2018-06-04T05:36:59.739Z,97.94
2018-06-04T05:39:28.155Z,95.91
2018-06-04T05:41:56.564Z,94.03
2018-06-04T05:44:24.963Z,94.22
2018-06-04T05:46:53.390Z,96.79
2018-06-04T05:49:22.012Z,95.94
2018-06-04T05:51:50.436Z,94.02
2018-06-04T05:54:18.880Z,91.99
2018-06-04T05:56:47.301Z,91.72
2018-06-04T05:59:15.739Z,90.61
2018-06-04T06:01:44.256Z,93.23
2018-06-04T06:04:12.629Z,94.97
2018-06-04T06:06:41.101Z,90.55
2018-06-04T06:09:10.209Z,90.84
2018-06-04T06:11:38.870Z,91.41
2018-06-04T06:14:07.422Z,89.68
2018-06-04T06:16:35.787Z,88.14
2018-06-04T06:19:04.265Z,86.87
2018-06-04T06:21:32.692Z,87.61
2018-06-04T06:24:01.112Z,86.62
2018-06-04T06:26:29.516Z,87.72
2018-06-04T06:28:57.945Z,88.46
2018-06-04T06:31:26.587Z,87.70
2018-06-04T06:33:55.033Z,87.81
2018-06-04T06:36:23.495Z,84.85
2018-06-04T06:38:51.909Z,83.39
2018-06-04T06:41:20.315Z,83.67
2018-06-04T06:43:49.004Z,83.32
2018-06-04T06:46:17.670Z,83.89
2018-06-04T06:48:46.114Z,83.33
2018-06-04T06:51:14.566Z,81.02
2018-06-04T06:53:42.975Z,80.30
2018-06-04T06:56:11.632Z,80.89
2018-06-04T06:58:40.039Z,78.82
2018-06-04T07:01:08.497Z,79.44
2018-06-04T07:03:36.964Z,78.63
2018-06-04T07:06:05.375Z,78.63
2018-06-04T07:08:33.845Z,78.89
2018-06-04T07:11:02.648Z,76.42
2018-06-04T07:13:31.126Z,76.62
2018-06-04T07:15:59.542Z,79.69
2018-06-04T07:18:27.978Z,77.03
2018-06-04T07:20:56.427Z,75.17
2018-06-04T07:23:24.823Z,75.45
2018-06-04T07:25:53.247Z,74.80
2018-06-04T07:28:21.655Z,75.14
2018-06-04T07:30:50.124Z,74.10
2018-06-04T07:33:18.561Z,74.65
2018-06-04T07:35:47.000Z,72.92
2018-06-04T07:38:15.456Z,74.84
2018-06-04T07:40:43.889Z,74.16
2018-06-04T07:43:12.639Z,74.35
2018-06-04T07:45:41.065Z,74.24
2018-06-04T07:48:09.517Z,75.12
2018-06-04T07:50:37.921Z,74.08
2018-06-04T07:53:06.448Z,72.44
2018-06-04T07:55:34.883Z,73.58
2018-06-04T07:58:03.288Z,72.19
2018-06-04T08:00:32.081Z,72.75
2018-06-04T08:03:00.577Z,70.74
2018-06-04T08:05:28.997Z,70.60
2018-06-04T08:07:57.501Z,73.63
2018-06-04T08:10:25.932Z,72.78
2018-06-04T08:12:54.396Z,71.66
2018-06-04T08:15:23.089Z,71.60
2018-06-04T08:17:51.515Z,69.77
2018-06-04T08:20:19.982Z,69.47
2018-06-04T08:22:48.403Z,70.14
2018-06-04T08:25:16.842Z,69.04
2018-06-04T08:27:45.308Z,67.66
2018-06-04T08:30:14.009Z,69.23
2018-06-04T08:32:42.408Z,68.68
2018-06-04T08:35:10.814Z,68.20
2018-06-04T08:37:39.252Z,66.41
2018-06-04T08:40:07.939Z,65.93
2018-06-04T08:42:36.396Z,65.66
2018-06-04T08:45:04.927Z,66.07
2018-06-04T08:47:33.331Z,66.48
2018-06-04T08:50:01.757Z,66.83
2018-06-04T08:52:30.201Z,66.04
2018-06-04T08:54:58.768Z,65.41
2018-06-04T08:57:27.207Z,63.26
2018-06-04T08:59:55.645Z,65.00
2018-06-04T09:02:24.093Z,65.63
2018-06-04T09:04:52.528Z,64.33
2018-06-04T09:07:20.993Z,61.79
2018-06-04T09:09:49.410Z,61.76
2018-06-04T09:12:17.862Z,62.56
2018-06-04T09:14:46.301Z,63.20
2018-06-04T09:17:14.725Z,63.80
2018-06-04T09:19:43.203Z,61.92
2018-06-04T09:22:11.619Z,58.66
2018-06-04T09:24:40.280Z,56.45
2018-06-04T09:27:08.864Z,56.32
2018-06-04T09:29:37.280Z,56.92
2018-06-04T09:32:05.996Z,58.31
2018-06-04T09:34:34.428Z,62.33
2018-06-04T09:37:02.852Z,59.29
2018-06-04T09:39:31.233Z,57.48
2018-06-04T09:41:59.701Z,58.51
2018-06-04T09:44:28.328Z,55.47
2018-06-04T09:46:56.734Z,57.57
2018-06-04T09:49:25.315Z,53.75
2018-06-04T09:51:53.724Z,55.75
2018-06-04T09:54:22.159Z,52.58
2018-06-04T09:56:50.535Z,54.49
2018-06-04T09:59:18.955Z,54.02
2018-06-04T10:01:47.387Z,52.22
2018-06-04T10:04:15.876Z,51.16
2018-06-04T10:06:45.234Z,52.51
2018-06-04T10:09:13.629Z,50.67
2018-06-04T10:11:42.052Z,51.00
2018-06-04T10:14:10.516Z,51.90
2018-06-04T10:16:38.920Z,50.66
2018-06-04T10:19:07.485Z,48.95
2018-06-04T10:21:35.879Z,49.67
2018-06-04T10:24:04.288Z,46.19
2018-06-04T10:26:32.712Z,47.87
2018-06-04T10:29:01.232Z,47.85
2018-06-04T10:31:29.813Z,48.66
2018-06-04T10:33:58.236Z,50.52
2018-06-04T10:36:26.674Z,47.72
2018-06-04T10:38:55.095Z,49.31
2018-06-04T10:41:23.490Z,49.07
2018-06-04T10:43:52.198Z,46.98
2018-06-04T10:46:20.840Z,43.70
2018-06-04T10:48:49.256Z,46.68
2018-06-04T10:51:17.683Z,42.88
2018-06-04T10:53:46.104Z,46.57
2018-06-04T10:56:14.524Z,45.33
2018-06-04T10:58:43.055Z,46.72
2018-06-04T11:01:11.492Z,41.35
2018-06-04T11:03:39.910Z,42.42
2018-06-04T11:06:08.336Z,47.67
2018-06-04T11:08:36.762Z,44.84
2018-06-04T11:11:05.186Z,41.55
2018-06-04T11:13:33.977Z,43.05
2018-06-04T11:16:02.360Z,41.88
2018-06-04T11:18:30.799Z,43.53
2018-06-04T11:20:59.386Z,42.15
2018-06-04T11:23:27.809Z,41.62
2018-06-04T11:25:56.490Z,38.89
2018-06-04T11:28:24.888Z,38.19
2018-06-04T11:30:53.347Z,39.29
2018-06-04T11:33:21.724Z,40.63
2018-06-04T11:35:50.116Z,42.88
2018-06-04T11:38:18.537Z,37.56
2018-06-04T11:40:46.945Z,42.46
2018-06-04T11:43:15.472Z,45.49
2018-06-04T11:45:43.896Z,45.33
2018-06-04T11:48:12.362Z,43.37
2018-06-04T11:50:40.786Z,42.62
2018-06-04T11:53:09.195Z,43.34
2018-06-04T11:55:37.675Z,43.08
2018-06-04T11:58:06.070Z,38.42
2018-06-04T12:00:34.521Z,36.76
2018-06-04T12:03:02.923Z,36.52
2018-06-04T12:05:31.324Z,36.94
2018-06-04T12:07:59.883Z,39.14
2018-06-04T12:10:28.294Z,42.31
2018-06-04T12:12:56.724Z,40.31
2018-06-04T12:15:25.121Z,40.21
2018-06-04T12:17:53.720Z,37.51
2018-06-04T12:20:22.123Z,39.89
2018-06-04T12:22:50.554Z,40.90
2018-06-04T12:25:19.003Z,39.37
2018-06-04T12:27:47.552Z,42.93
2018-06-04T12:30:15.978Z,42.88
2018-06-04T12:32:44.506Z,41.87
2018-06-04T12:35:13.004Z,42.99
2018-06-04T12:37:41.439Z,49.49
2018-06-04T12:40:10.075Z,50.25
2018-06-04T12:42:38.488Z,51.34
2018-06-04T12:45:06.932Z,52.68
2018-06-04T12:47:35.387Z,51.36
2018-06-04T12:50:03.848Z,49.96
2018-06-04T12:52:32.267Z,49.08
2018-06-04T12:55:00.656Z,45.33
2018-06-04T12:57:29.115Z,43.86
2018-06-04T12:59:57.539Z,44.12
2018-06-04T13:02:25.943Z,42.48
2018-06-04T13:04:54.620Z,38.67
2018-06-04T13:07:22.987Z,40.57
2018-06-04T13:09:51.417Z,37.97
2018-06-04T13:12:19.831Z,37.20
2018-06-04T13:14:48.279Z,37.47
2018-06-04T13:17:16.702Z,34.29
2018-06-04T13:19:45.434Z,36.15
2018-06-04T13:22:13.851Z,35.63
2018-06-04T13:24:42.263Z,35.36
2018-06-04T13:27:10.672Z,34.91
2018-06-04T13:29:39.155Z,36.27
2018-06-04T13:32:07.603Z,36.36
2018-06-04T13:34:36.035Z,38.21
2018-06-04T13:37:04.498Z,38.53
2018-06-04T13:39:32.992Z,38.19
2018-06-04T13:42:01.363Z,37.15
2018-06-04T13:44:29.832Z,35.06
2018-06-04T13:46:58.275Z,36.11
2018-06-04T13:49:26.740Z,36.62
2018-06-04T13:51:55.160Z,35.64
2018-06-04T13:54:23.666Z,34.95
2018-06-04T13:56:52.367Z,33.25
2018-06-04T13:59:20.851Z,35.52
2018-06-04T14:01:49.276Z,36.59
2018-06-04T14:04:17.720Z,34.86
2018-06-04T14:06:46.509Z,33.58
2018-06-04T14:09:14.947Z,33.26
2018-06-04T14:11:43.371Z,33.09
2018-06-04T14:14:13.903Z,33.39
2018-06-04T14:16:42.323Z,35.28
2018-06-04T14:19:10.739Z,34.23
2018-06-04T14:21:39.142Z,35.64
2018-06-04T14:24:07.526Z,32.51
2018-06-04T14:26:35.939Z,31.22
2018-06-04T14:29:04.384Z,32.55
2018-06-04T14:31:32.830Z,33.51
2018-06-04T14:34:01.261Z,32.86
2018-06-04T14:36:29.720Z,30.85
2018-06-04T14:38:58.175Z,32.22
2018-06-04T14:41:26.623Z,31.62
2018-06-04T14:43:55.043Z,31.47
2018-06-04T14:46:23.451Z,32.44
2018-06-04T14:48:52.243Z,31.17
2018-06-04T14:51:20.841Z,32.47
2018-06-04T14:53:49.461Z,33.29
2018-06-04T14:56:17.872Z,30.50
2018-06-04T14:58:46.516Z,32.98
2018-06-04T15:01:14.963Z,33.69
2018-06-04T15:03:43.575Z,32.59
2018-06-04T15:06:12.036Z,31.00
2018-06-04T15:08:40.455Z,32.01
2018-06-04T15:11:08.893Z,31.56
2018-06-04T15:13:37.347Z,31.08
2018-06-04T15:16:06.096Z,32.13
2018-06-04T15:18:34.520Z,31.02
2018-06-04T15:21:03.185Z,30.87
2018-06-04T15:23:31.551Z,30.15
2018-06-04T15:26:00.022Z,29.02
2018-06-04T15:28:28.491Z,29.67
2018-06-04T15:30:56.928Z,31.46
2018-06-04T15:33:25.316Z,33.30
2018-06-04T15:35:53.691Z,34.45
2018-06-04T15:38:22.116Z,36.71
2018-06-04T15:40:50.541Z,34.52
2018-06-04T15:43:18.955Z,32.40
2018-06-04T15:45:47.611Z,30.94
2018-06-04T15:48:16.032Z,32.62
2018-06-04T15:50:44.503Z,36.35
2018-06-04T15:53:12.908Z,32.31
2018-06-04T15:55:41.533Z,36.12
2018-06-04T15:58:09.954Z,37.14
2018-06-04T16:00:38.452Z,37.18
2018-06-04T16:03:06.892Z,37.62
2018-06-04T16:05:35.335Z,39.52
2018-06-04T16:08:03.752Z,38.24
2018-06-04T16:10:32.178Z,39.16
2018-06-04T16:13:00.627Z,39.76
2018-06-04T16:15:29.059Z,39.53
2018-06-04T16:17:57.483Z,43.81
2018-06-04T16:20:25.997Z,43.00
2018-06-04T16:22:54.385Z,43.37
2018-06-04T16:25:22.818Z,42.77
2018-06-04T16:27:51.193Z,45.25
2018-06-04T16:30:19.615Z,45.67
2018-06-04T16:32:48.050Z,43.14
2018-06-04T16:35:16.451Z,41.39
2018-06-04T16:37:45.112Z,39.34
2018-06-04T16:40:13.582Z,42.87
2018-06-04T16:42:42.227Z,46.83
2018-06-04T16:45:10.724Z,47.37
2018-06-04T16:47:39.199Z,48.84
2018-06-04T16:50:07.669Z,48.05
2018-06-04T16:52:36.047Z,50.34
2018-06-04T16:55:04.501Z,49.03
2018-06-04T16:57:32.931Z,46.68
2018-06-04T17:00:01.359Z,50.70
2018-06-04T17:02:29.829Z,48.17
2018-06-04T17:04:58.303Z,51.39
2018-06-04T17:07:26.722Z,49.70
2018-06-04T17:09:55.149Z,51.13
2018-06-04T17:12:23.619Z,52.59
2018-06-04T17:14:52.012Z,52.14
2018-06-04T17:17:20.468Z,52.85
2018-06-04T17:19:49.013Z,51.00
2018-06-04T17:22:17.549Z,53.87
2018-06-04T17:24:45.973Z,51.99
2018-06-04T17:27:14.419Z,46.94
2018-06-04T17:29:42.867Z,43.01
2018-06-04T17:32:11.254Z,44.09
2018-06-04T17:34:39.647Z,45.64
2018-06-04T17:37:08.102Z,49.04
2018-06-04T17:39:36.474Z,50.49
2018-06-04T17:42:04.973Z,52.07
2018-06-04T17:44:33.410Z,54.42
2018-06-04T17:47:01.850Z,50.24
2018-06-04T17:49:30.255Z,51.30
2018-06-04T17:51:58.663Z,47.93
2018-06-04T17:54:27.099Z,44.43
2018-06-04T17:56:55.529Z,46.95
2018-06-04T17:59:23.911Z,47.05
2018-06-04T18:01:52.325Z,47.33
2018-06-04T18:04:20.783Z,45.48
2018-06-04T18:06:49.249Z,46.35
2018-06-04T18:09:17.762Z,46.86
2018-06-04T18:11:46.194Z,45.53
2018-06-04T18:14:14.635Z,44.17
2018-06-04T18:16:43.072Z,46.50
2018-06-04T18:19:11.549Z,46.91
2018-06-04T18:21:39.977Z,49.66
2018-06-04T18:24:08.376Z,49.00
2018-06-04T18:26:36.831Z,51.25
2018-06-04T18:29:05.268Z,50.41
2018-06-04T18:31:33.707Z,51.06
2018-06-04T18:34:02.115Z,53.04
2018-06-04T18:36:30.566Z,51.60
2018-06-04T18:38:59.002Z,55.22
2018-06-04T18:42:56.860Z,56.58
2018-06-04T18:45:25.308Z,60.23
2018-06-04T18:47:53.786Z,59.68
2018-06-04T18:50:22.191Z,62.51
2018-06-04T18:52:50.695Z,61.58
2018-06-04T18:55:19.133Z,63.01
2018-06-04T18:57:47.599Z,62.87
2018-06-04T19:00:16.793Z,63.83
2018-06-04T19:02:45.230Z,63.29
2018-06-04T19:05:13.648Z,63.82
2018-06-04T19:07:42.104Z,64.10
2018-06-04T19:10:10.472Z,64.09
2018-06-04T19:12:38.915Z,64.14
2018-06-04T19:15:07.523Z,64.26
2018-06-04T19:17:36.031Z,64.11
2018-06-04T19:20:04.536Z,64.62
2018-06-04T19:22:32.971Z,62.24
2018-06-04T19:25:01.478Z,63.14
2018-06-04T19:27:29.908Z,63.64
2018-06-04T19:29:58.454Z,64.17
2018-06-04T19:32:26.854Z,64.75
2018-06-04T19:34:55.298Z,64.94
2018-06-04T19:37:23.748Z,63.81
2018-06-04T19:39:52.283Z,63.31
2018-06-04T19:42:20.711Z,63.96
2018-06-04T19:44:49.131Z,62.71
2018-06-04T19:47:17.548Z,63.25
2018-06-04T19:49:45.939Z,64.12
2018-06-04T19:52:14.495Z,64.72
2018-06-04T19:54:42.919Z,65.84
2018-06-04T19:57:14.275Z,66.42
2018-06-04T19:59:45.462Z,66.73
2018-06-04T20:02:16.541Z,67.34
2018-06-04T20:04:46.039Z,67.90
2018-06-04T20:07:14.877Z,68.53
2018-06-04T20:09:43.754Z,69.30
2018-06-04T20:12:12.186Z,69.86
2018-06-04T20:14:40.636Z,69.74
2018-06-04T20:17:09.087Z,70.16
2018-06-04T20:19:37.838Z,70.42
2018-06-04T20:22:06.603Z,71.98
2018-06-04T20:24:35.711Z,70.19
2018-06-04T20:27:04.232Z,71.30
2018-06-04T20:29:32.696Z,72.14
2018-06-04T20:32:01.356Z,72.10
2018-06-04T20:34:29.875Z,71.22
2018-06-04T20:36:58.598Z,71.74
2018-06-04T20:39:27.903Z,71.38
2018-06-04T20:41:56.468Z,70.77
2018-06-04T20:44:24.876Z,70.27
2018-06-04T20:46:53.351Z,69.92
2018-06-04T20:49:21.790Z,69.88
2018-06-04T20:51:50.227Z,70.26
2018-06-04T20:54:19.094Z,69.56
2018-06-04T20:56:47.548Z,69.10
2018-06-04T20:59:16.007Z,67.73
2018-06-04T21:01:44.453Z,68.29
2018-06-04T21:04:12.922Z,67.64
2018-06-04T21:06:41.334Z,66.51
2018-06-04T21:09:09.765Z,65.76
2018-06-04T21:11:38.196Z,65.48
2018-06-04T21:14:06.603Z,64.63
2018-06-04T21:16:35.058Z,65.50
2018-06-04T21:19:03.508Z,65.73
2018-06-04T21:21:31.933Z,64.34
2018-06-04T21:24:00.458Z,64.99
2018-06-04T21:26:28.899Z,65.03
2018-06-04T21:28:57.379Z,64.98
2018-06-04T21:31:25.872Z,65.50
2018-06-04T21:33:54.291Z,66.22
2018-06-04T21:36:22.814Z,65.19
2018-06-04T21:38:51.531Z,64.96
2018-06-04T21:41:19.980Z,64.12
2018-06-04T21:43:48.419Z,63.83
2018-06-04T21:46:16.819Z,64.05
2018-06-04T21:48:48.722Z,65.11
2018-06-04T21:51:17.375Z,65.03
2018-06-04T21:53:45.811Z,64.56
2018-06-04T21:56:14.240Z,64.56
2018-06-04T21:58:42.626Z,64.81
2018-06-04T22:01:11.082Z,65.17
2018-06-04T22:03:39.488Z,64.73
2018-06-04T22:06:07.936Z,64.81
2018-06-04T22:08:36.648Z,65.44
2018-06-04T22:11:05.088Z,65.00
2018-06-04T22:13:33.516Z,65.44
2018-06-04T22:16:01.973Z,66.09
2018-06-04T22:18:30.431Z,65.85
2018-06-04T22:20:58.847Z,66.82
2018-06-04T22:23:27.518Z,65.62
2018-06-04T22:25:55.938Z,64.59
2018-06-04T22:28:24.394Z,63.97
2018-06-04T22:30:52.819Z,64.50
2018-06-04T22:33:21.383Z,63.64
2018-06-04T22:35:49.836Z,63.00
2018-06-04T22:39:47.717Z,64.40
2018-06-04T22:42:16.172Z,63.17
2018-06-04T22:44:44.606Z,64.14
2018-06-04T22:47:13.005Z,63.91
2018-06-04T22:49:41.483Z,63.86
2018-06-04T22:52:09.900Z,63.54
2018-06-04T22:54:38.355Z,63.70
2018-06-04T22:57:06.740Z,64.37
2018-06-04T22:59:35.187Z,63.84
2018-06-04T23:02:03.618Z,65.67
2018-06-04T23:04:32.060Z,64.30
2018-06-04T23:07:00.483Z,64.57
2018-06-04T23:09:29.095Z,64.85
2018-06-04T23:11:58.980Z,64.26
2018-06-04T23:14:27.460Z,64.70
2018-06-04T23:16:55.941Z,64.85
2018-06-04T23:19:24.383Z,65.67
2018-06-04T23:21:52.772Z,66.26
2018-06-04T23:24:21.214Z,67.15
2018-06-04T23:26:49.633Z,68.22
2018-06-04T23:29:18.091Z,68.17
2018-06-04T23:31:46.510Z,67.93
2018-06-04T23:34:15.040Z,69.39
2018-06-04T23:36:43.722Z,70.25
2018-06-04T23:39:12.187Z,70.29
2018-06-04T23:41:40.615Z,70.02
2018-06-04T23:44:09.141Z,70.94
2018-06-04T23:46:37.551Z,70.84
2018-06-04T23:49:06.022Z,71.40
2018-06-04T23:51:34.454Z,72.18
2018-06-04T23:54:02.868Z,72.88
2018-06-04T23:56:31.347Z,74.18
2018-06-04T23:58:59.764Z,75.95
